메인 페이지
METAR-TAF:

METAR-TAF

공항 :

신트마르턴, 네덜란드령 안틸레스

프린세스 줄리아나 국제공항

위도: 18-03N, 경도: 063-07W, 고도: 4m

현재 날씨관측

예보는 1 시간 3분 전, 04:00시(UTC)에 발표되었습니다.
7kt북동풍과 동남동풍을 오가는
온도 25°C
습도 83%
기압 1018 hPa
시정 10km 이상
고도 1600ft 상공 구름 조금
고도 3500ft 상공 구름 보통
약한소나기

METAR: TNCM 250400Z 08007KT 040V120 9999 -SHRA FEW016 SCT035 25/22 Q1017 A3005

시각: 01:03 (05:03 UTC)

예보

예보는 3 시간 31분 전, 01:32시(UTC)에 발표되었습니다.
예보 대상 시간: 25일 02시부터 25일 24시까지 (UTC)
동북동10kt
시정: 10km
고도 1800ft 상공 구름 보통
고도 3500ft 상공 구름 보통
시계 내 소나기
일시적
25일 02시부터 25일 06시까지 (UTC)
고도 1800ft 상공 구름 보통
고도 3500ft 상공 구름 많음
약한소나기
25일 1200시부터 (UTC)
12kt
시정: 10km
고도 1800ft 상공 구름 보통
시계 내 소나기

TAF: TNCM 250132Z 2502/2524 06010KT P6SM VCSH SCT018 SCT035 TEMPO 2502/2506 -SHRA SCT018 BKN035 FM251200 09012KT P6SM VCSH SCT018

4,000개 이상의 공항 관측 자료 및 예보 (METAR 및 TAF 보고).

지도상에서 검색 가능한 기상관측소가 노란 점과 빨간 점으로 표시되어 있습니다.

기상관측소 명을 보려면 표시 위로 마우스를 이동하세요.

날씨 관측과 예보를 보려면 클릭하세요.

지도 변경 : 확대하려면 엑스 표시가 있는 녹색 버튼, 축소하려면 빼기 표시가 있는 녹색 버튼, 다음 페이지의 지도를 보려면 녹색 화살표를 클릭하세요.


METAR-TAF: